sensor_id;sensor_type;location;lat;lon;timestamp;P1;durP1;ratioP1;P2;durP2;ratioP2
22017;SDS011;11173;51.050;7.108;2022-12-08T00:05:20;9.98;;;7.75;;
22017;SDS011;11173;51.050;7.108;2022-12-08T00:15:39;14.00;;;10.67;;
22017;SDS011;11173;51.050;7.108;2022-12-08T00:25:39;14.30;;;10.25;;
22017;SDS011;11173;51.050;7.108;2022-12-08T00:35:39;11.35;;;9.50;;
22017;SDS011;11173;51.050;7.108;2022-12-08T00:45:40;10.63;;;8.73;;
22017;SDS011;11173;51.050;7.108;2022-12-08T00:55:43;9.05;;;7.78;;
22017;SDS011;11173;51.050;7.108;2022-12-08T01:05:43;9.73;;;7.93;;
22017;SDS011;11173;51.050;7.108;2022-12-08T01:15:43;10.75;;;8.95;;
22017;SDS011;11173;51.050;7.108;2022-12-08T01:25:44;12.27;;;10.00;;
22017;SDS011;11173;51.050;7.108;2022-12-08T01:35:44;10.40;;;9.07;;
22017;SDS011;11173;51.050;7.108;2022-12-08T01:45:45;13.05;;;9.85;;
22017;SDS011;11173;51.050;7.108;2022-12-08T01:55:47;12.73;;;9.73;;
22017;SDS011;11173;51.050;7.108;2022-12-08T02:05:51;9.60;;;7.93;;
22017;SDS011;11173;51.050;7.108;2022-12-08T02:26:37;11.57;;;10.40;;
22017;SDS011;11173;51.050;7.108;2022-12-08T02:36:44;11.70;;;10.43;;
22017;SDS011;11173;51.050;7.108;2022-12-08T02:46:57;10.63;;;9.38;;
22017;SDS011;11173;51.050;7.108;2022-12-08T02:57:15;11.65;;;10.15;;
22017;SDS011;11173;51.050;7.108;2022-12-08T03:07:35;13.07;;;9.15;;
22017;SDS011;11173;51.050;7.108;2022-12-08T03:17:46;8.50;;;7.28;;
22017;SDS011;11173;51.050;7.108;2022-12-08T03:27:50;7.32;;;6.25;;
22017;SDS011;11173;51.050;7.108;2022-12-08T03:38:00;6.68;;;5.63;;
22017;SDS011;11173;51.050;7.108;2022-12-08T03:48:03;7.95;;;7.15;;
22017;SDS011;11173;51.050;7.108;2022-12-08T03:58:03;8.07;;;7.28;;
22017;SDS011;11173;51.050;7.108;2022-12-08T04:08:03;6.82;;;5.88;;
22017;SDS011;11173;51.050;7.108;2022-12-08T04:18:04;6.53;;;5.93;;
22017;SDS011;11173;51.050;7.108;2022-12-08T04:28:04;6.80;;;5.80;;
22017;SDS011;11173;51.050;7.108;2022-12-08T04:38:05;8.45;;;7.07;;
22017;SDS011;11173;51.050;7.108;2022-12-08T04:48:05;7.80;;;7.00;;
22017;SDS011;11173;51.050;7.108;2022-12-08T04:58:06;6.22;;;5.68;;
22017;SDS011;11173;51.050;7.108;2022-12-08T05:08:07;8.15;;;6.78;;
22017;SDS011;11173;51.050;7.108;2022-12-08T05:18:08;7.75;;;6.22;;
22017;SDS011;11173;51.050;7.108;2022-12-08T05:28:08;9.40;;;8.27;;
22017;SDS011;11173;51.050;7.108;2022-12-08T05:38:11;7.10;;;5.18;;
22017;SDS011;11173;51.050;7.108;2022-12-08T05:48:12;7.18;;;6.47;;
22017;SDS011;11173;51.050;7.108;2022-12-08T05:58:13;9.70;;;8.38;;
22017;SDS011;11173;51.050;7.108;2022-12-08T06:08:17;12.35;;;10.75;;
22017;SDS011;11173;51.050;7.108;2022-12-08T06:18:18;16.45;;;12.70;;
22017;SDS011;11173;51.050;7.108;2022-12-08T06:28:18;20.70;;;13.63;;
22017;SDS011;11173;51.050;7.108;2022-12-08T06:38:18;16.00;;;12.15;;
22017;SDS011;11173;51.050;7.108;2022-12-08T06:48:19;19.40;;;12.10;;
22017;SDS011;11173;51.050;7.108;2022-12-08T06:58:19;13.65;;;11.10;;
22017;SDS011;11173;51.050;7.108;2022-12-08T07:08:19;15.10;;;11.85;;
22017;SDS011;11173;51.050;7.108;2022-12-08T07:18:20;17.10;;;12.30;;
22017;SDS011;11173;51.050;7.108;2022-12-08T07:28:20;21.05;;;13.38;;
22017;SDS011;11173;51.050;7.108;2022-12-08T07:38:20;18.05;;;12.25;;
22017;SDS011;11173;51.050;7.108;2022-12-08T07:48:21;14.20;;;11.00;;
22017;SDS011;11173;51.050;7.108;2022-12-08T07:58:21;17.75;;;11.57;;
22017;SDS011;11173;51.050;7.108;2022-12-08T08:08:21;13.70;;;10.15;;
22017;SDS011;11173;51.050;7.108;2022-12-08T08:18:22;15.23;;;12.27;;
22017;SDS011;11173;51.050;7.108;2022-12-08T08:28:22;10.77;;;9.55;;
22017;SDS011;11173;51.050;7.108;2022-12-08T08:38:23;12.93;;;9.35;;
22017;SDS011;11173;51.050;7.108;2022-12-08T08:48:23;14.15;;;10.93;;
22017;SDS011;11173;51.050;7.108;2022-12-08T08:58:25;11.65;;;9.05;;
22017;SDS011;11173;51.050;7.108;2022-12-08T09:08:25;11.68;;;9.13;;
22017;SDS011;11173;51.050;7.108;2022-12-08T09:18:26;10.23;;;7.95;;
22017;SDS011;11173;51.050;7.108;2022-12-08T09:28:26;9.82;;;8.77;;
22017;SDS011;11173;51.050;7.108;2022-12-08T09:38:26;10.43;;;8.82;;
22017;SDS011;11173;51.050;7.108;2022-12-08T09:48:34;5.95;;;5.35;;
22017;SDS011;11173;51.050;7.108;2022-12-08T10:19:16;6.10;;;4.97;;
22017;SDS011;11173;51.050;7.108;2022-12-08T10:29:20;5.75;;;5.13;;
22017;SDS011;11173;51.050;7.108;2022-12-08T10:49:31;5.40;;;3.85;;
22017;SDS011;11173;51.050;7.108;2022-12-08T10:59:34;6.15;;;5.47;;
22017;SDS011;11173;51.050;7.108;2022-12-08T11:09:36;9.75;;;7.05;;
22017;SDS011;11173;51.050;7.108;2022-12-08T11:19:37;8.82;;;6.68;;
22017;SDS011;11173;51.050;7.108;2022-12-08T11:29:45;12.27;;;9.07;;
22017;SDS011;11173;51.050;7.108;2022-12-08T11:39:48;10.55;;;8.55;;
22017;SDS011;11173;51.050;7.108;2022-12-08T11:50:00;5.60;;;5.10;;
22017;SDS011;11173;51.050;7.108;2022-12-08T12:00:16;4.13;;;3.72;;
22017;SDS011;11173;51.050;7.108;2022-12-08T12:30:54;2.97;;;2.72;;
22017;SDS011;11173;51.050;7.108;2022-12-08T12:41:01;3.28;;;3.03;;
22017;SDS011;11173;51.050;7.108;2022-12-08T12:51:22;4.15;;;3.55;;
22017;SDS011;11173;51.050;7.108;2022-12-08T13:01:36;4.00;;;3.70;;
22017;SDS011;11173;51.050;7.108;2022-12-08T13:11:48;3.88;;;3.08;;
22017;SDS011;11173;51.050;7.108;2022-12-08T13:21:53;4.97;;;4.03;;
22017;SDS011;11173;51.050;7.108;2022-12-08T13:31:58;5.53;;;3.75;;
22017;SDS011;11173;51.050;7.108;2022-12-08T13:42:04;6.10;;;5.47;;
22017;SDS011;11173;51.050;7.108;2022-12-08T13:52:14;7.18;;;4.70;;
22017;SDS011;11173;51.050;7.108;2022-12-08T14:02:28;5.63;;;3.85;;
22017;SDS011;11173;51.050;7.108;2022-12-08T14:12:38;6.22;;;4.40;;
22017;SDS011;11173;51.050;7.108;2022-12-08T14:22:42;6.70;;;4.88;;
22017;SDS011;11173;51.050;7.108;2022-12-08T14:32:45;7.50;;;4.30;;
22017;SDS011;11173;51.050;7.108;2022-12-08T14:53:11;3.57;;;3.23;;
22017;SDS011;11173;51.050;7.108;2022-12-08T15:03:14;4.43;;;2.80;;
22017;SDS011;11173;51.050;7.108;2022-12-08T15:33:19;6.22;;;4.60;;
22017;SDS011;11173;51.050;7.108;2022-12-08T15:43:20;6.72;;;4.88;;
22017;SDS011;11173;51.050;7.108;2022-12-08T15:53:21;4.43;;;4.03;;
22017;SDS011;11173;51.050;7.108;2022-12-08T16:03:25;5.07;;;4.57;;
22017;SDS011;11173;51.050;7.108;2022-12-08T16:13:27;1.80;;;1.70;;
22017;SDS011;11173;51.050;7.108;2022-12-08T16:23:46;4.33;;;2.87;;
22017;SDS011;11173;51.050;7.108;2022-12-08T16:33:46;13.02;;;5.50;;
22017;SDS011;11173;51.050;7.108;2022-12-08T16:43:47;5.68;;;3.65;;
22017;SDS011;11173;51.050;7.108;2022-12-08T16:53:49;3.88;;;3.55;;
22017;SDS011;11173;51.050;7.108;2022-12-08T17:03:50;2.50;;;2.30;;
22017;SDS011;11173;51.050;7.108;2022-12-08T17:13:51;2.70;;;2.50;;
22017;SDS011;11173;51.050;7.108;2022-12-08T17:23:51;1.60;;;1.50;;
22017;SDS011;11173;51.050;7.108;2022-12-08T17:33:52;3.05;;;2.50;;
22017;SDS011;11173;51.050;7.108;2022-12-08T17:43:52;5.07;;;3.15;;
22017;SDS011;11173;51.050;7.108;2022-12-08T17:53:52;2.80;;;2.60;;
22017;SDS011;11173;51.050;7.108;2022-12-08T18:03:53;4.30;;;3.00;;
22017;SDS011;11173;51.050;7.108;2022-12-08T18:13:53;1.83;;;1.73;;
22017;SDS011;11173;51.050;7.108;2022-12-08T18:23:54;1.77;;;1.67;;
22017;SDS011;11173;51.050;7.108;2022-12-08T18:33:55;1.73;;;1.63;;
22017;SDS011;11173;51.050;7.108;2022-12-08T18:43:55;1.90;;;1.80;;
22017;SDS011;11173;51.050;7.108;2022-12-08T18:53:56;2.50;;;2.30;;
22017;SDS011;11173;51.050;7.108;2022-12-08T19:03:57;1.88;;;1.77;;
22017;SDS011;11173;51.050;7.108;2022-12-08T19:14:01;2.08;;;1.98;;
22017;SDS011;11173;51.050;7.108;2022-12-08T19:24:02;2.17;;;2.08;;
22017;SDS011;11173;51.050;7.108;2022-12-08T19:34:03;1.90;;;1.80;;
22017;SDS011;11173;51.050;7.108;2022-12-08T19:44:15;2.25;;;2.15;;
22017;SDS011;11173;51.050;7.108;2022-12-08T19:54:35;3.78;;;2.10;;
22017;SDS011;11173;51.050;7.108;2022-12-08T20:04:35;1.45;;;1.35;;
22017;SDS011;11173;51.050;7.108;2022-12-08T20:14:35;1.60;;;1.50;;
22017;SDS011;11173;51.050;7.108;2022-12-08T20:24:36;1.80;;;1.70;;
22017;SDS011;11173;51.050;7.108;2022-12-08T20:34:36;1.65;;;1.55;;
22017;SDS011;11173;51.050;7.108;2022-12-08T20:44:37;1.80;;;1.70;;
22017;SDS011;11173;51.050;7.108;2022-12-08T20:54:42;1.10;;;1.10;;
22017;SDS011;11173;51.050;7.108;2022-12-08T21:04:42;0.85;;;0.85;;
22017;SDS011;11173;51.050;7.108;2022-12-08T21:14:42;1.10;;;1.10;;
22017;SDS011;11173;51.050;7.108;2022-12-08T21:24:44;1.10;;;1.10;;
22017;SDS011;11173;51.050;7.108;2022-12-08T21:34:44;1.10;;;1.10;;
22017;SDS011;11173;51.050;7.108;2022-12-08T21:44:44;1.00;;;1.00;;
22017;SDS011;11173;51.050;7.108;2022-12-08T21:54:45;1.17;;;1.17;;
22017;SDS011;11173;51.050;7.108;2022-12-08T22:04:46;0.90;;;0.90;;
22017;SDS011;11173;51.050;7.108;2022-12-08T22:14:48;0.82;;;0.82;;
22017;SDS011;11173;51.050;7.108;2022-12-08T22:24:49;0.90;;;0.90;;
22017;SDS011;11173;51.050;7.108;2022-12-08T22:34:50;1.00;;;1.00;;
22017;SDS011;11173;51.050;7.108;2022-12-08T22:44:50;0.90;;;0.85;;
22017;SDS011;11173;51.050;7.108;2022-12-08T22:54:50;0.77;;;0.77;;
22017;SDS011;11173;51.050;7.108;2022-12-08T23:04:54;0.80;;;0.80;;
22017;SDS011;11173;51.050;7.108;2022-12-08T23:14:55;0.90;;;0.90;;
22017;SDS011;11173;51.050;7.108;2022-12-08T23:24:56;0.93;;;0.93;;
22017;SDS011;11173;51.050;7.108;2022-12-08T23:34:56;1.00;;;1.00;;
22017;SDS011;11173;51.050;7.108;2022-12-08T23:44:57;1.10;;;1.10;;
22017;SDS011;11173;51.050;7.108;2022-12-08T23:54:57;1.30;;;1.30;;
